• Join FlightAware (Why Join?)
  • Login
  • US Flag 
06:52AM EDT


 

Airport Tracker/Info


-or-


 

Live Flight TrackerFlight Track Log ✈ SWA542 ✈ 11-Apr-2013 ✈ KMCO - KMDW

Flight Track Log - Related Links

Times and Time Zones

All times are in EDT time to prevent confusion due to time zone crossing. See the SWA542 flight status page for this flight to view local times or setup timezone preferences in your user account.

Time Position Orientation Groundspeed Altitude Reporting Facility
EDT Latitude Longitude Course Direction KTS MPH feet Rate Location/Type
07:30PM 28.4167 -81.3167 270° West 166 191 700  Level Orlando TRACON
07:31PM 28.3833 -81.3333 204° Southwest 204 235 2,400 2,160 Climbing Orlando TRACON
07:32PM 28.3833 -81.4167 270° West 259 298 4,900 1,260 Climbing Orlando TRACON
07:33PM 28.4167 -81.4833 300° West 265 305 5,000 60 Climbing Orlando TRACON
07:34PM 28.4333 -81.5500 286° West 268 308 5,100 1,500 Climbing Orlando TRACON
07:35PM 28.4833 -81.6333 304° West 275 316 7,900 2,460 Climbing Orlando TRACON
07:36PM 28.4167 -82.1257 270° West  Level FlightAware Approximate
07:38PM 28.5711 -81.8147 299° West 291 335 13,700  Level Jacksonville Center
07:39PM 28.6094 -81.9089 295° West 301 346 16,500 2,400 Climbing Jacksonville Center
07:40PM 28.6247 -82.0103 280° West 325 374 18,600 2,580 Climbing Jacksonville Center
07:41PM 28.6256 -82.1264 270° West 330 380 21,700 2,700 Climbing Jacksonville Center
07:42PM 28.6325 -82.2325 274° West 330 380 24,100 1,860 Climbing Jacksonville Center
07:43PM 28.6411 -82.3389 275° West 335 386 25,500 900 Climbing Jacksonville Center
07:44PM 28.6481 -82.4572 274° West 343 395 25,900 540 Climbing Jacksonville Center
07:45PM 28.6525 -82.5875 272° West 382 440 26,600 900 Climbing Jacksonville Center
07:46PM 28.7300 -82.6678 318° Northwest 384 442 27,700 660 Climbing Jacksonville Center
07:47PM 28.8469 -82.7219 338° Northwest 394 453 28,000 180 Climbing Jacksonville Center
07:48PM 28.9639 -82.7786 337° Northwest 420 483 28,100 1,440 Climbing Jacksonville Center
07:49PM 29.0786 -82.8283 339° North 436 502 30,900 2,280 Climbing Jacksonville Center
07:50PM 29.1850 -82.8758 339° North 430 495 32,700 1,440 Climbing Jacksonville Center
07:51PM 29.2917 -82.9236 339° North 418 481 33,800 1,020 Climbing Jacksonville Center
07:52PM 29.4000 -82.9736 338° Northwest 413 475 34,800 900 Climbing Jacksonville Center
07:53PM 29.5128 -83.0261 338° Northwest 419 482 35,600 900 Climbing Jacksonville Center
07:54PM 29.6233 -83.0764 338° Northwest 424 488 36,700 1,140 Climbing Jacksonville Center
07:55PM 29.7339 -83.1269 338° Northwest 424 488 37,900 600 Climbing Jacksonville Center
07:56PM 29.8403 -83.1750 339° North 414 476 38,000  Climbing Jacksonville Center
07:57PM 29.9444 -83.2258 337° Northwest 414 476 38,000  Level Jacksonville Center
07:58PM 30.0675 -83.2767 340° North 414 476 38,000  Level Jacksonville Center
07:59PM 30.1739 -83.3250 339° North 414 476 38,000  Level Jacksonville Center
08:00PM 30.2822 -83.3761 338° Northwest 414 476 38,000  Level Jacksonville Center
08:01PM 30.3864 -83.4222 339° North 414 476 38,000  Level Jacksonville Center
08:02PM 30.4992 -83.4592 344° North 414 476 38,000  Level Jacksonville Center
08:03PM 30.6158 -83.4889 348° North 414 476 38,000  Level Jacksonville Center
08:04PM 30.7328 -83.5186 348° North 419 482 38,000  Level Jacksonville Center
08:05PM 30.8453 -83.5483 347° North 424 488 38,000  Level Jacksonville Center
08:06PM 30.9642 -83.5806 347° North 424 488 38,000  Level Jacksonville Center
08:07PM 31.0831 -83.6106 348° North 424 488 38,000  Level Jacksonville Center
08:08PM 31.2039 -83.6431 347° North 434 499 38,000  Level Jacksonville Center
08:10PM 31.4644 -83.7103 348° North 430 495 38,000  Level Atlanta Center
08:11PM 31.5875 -83.7414 348° North 436 502 38,000  Level Atlanta Center
08:12PM 31.7089 -83.7753 347° North 436 502 38,000  Level Atlanta Center
08:13PM 31.8214 -83.8017 349° North 448 516 38,000  Level Atlanta Center
08:14PM 31.9425 -83.8358 347° North 454 522 38,000  Level Atlanta Center
08:15PM 32.0678 -83.8625 350° North 448 516 38,000  Level Atlanta Center
08:16PM 32.1911 -83.8719 356° North 448 516 38,000  Level Atlanta Center
08:17PM 32.3206 -83.8839 356° North 448 516 38,000  Level Atlanta Center
08:18PM 32.4458 -83.8961 355° North 453 521 38,000  Level Atlanta Center
08:19PM 32.5753 -83.9058 356° North 458 527 38,000  Level Atlanta Center
08:20PM 32.7067 -83.9081 359° North 463 533 38,000  Level Atlanta Center
08:21PM 32.8403 -83.9153 357° North 463 533 38,000  Level Atlanta Center
08:22PM 32.9717 -83.9200 358° North 468 539 38,000  Level Atlanta Center
08:23PM 33.0992 -83.9222 359° North 462 532 38,000  Level Atlanta Center
08:24PM 33.2306 -83.9122 North 462 532 38,000  Level Atlanta Center
08:25PM 33.3642 -83.9019 North 467 537 38,000  Level Atlanta Center
08:26PM 33.5039 -83.8919 North 462 532 38,000  Level Atlanta Center
08:27PM 33.6375 -83.8717 North 462 532 38,000  Level Atlanta Center
08:28PM 33.7692 -83.8489 North 467 537 38,000  Level Atlanta Center
08:29PM 33.8983 -83.8311 North 472 543 38,000  Level Atlanta Center
08:30PM 34.0319 -83.8106 North 472 543 38,000  Level Atlanta Center
08:31PM 34.1675 -83.7903 North 483 556 38,000  Level Atlanta Center
08:32PM 34.3011 -83.7697 North 483 556 38,000  Level Atlanta Center
08:33PM 34.4347 -83.7442 North 483 556 38,000  Level Atlanta Center
08:34PM 34.5681 -83.7108 12° North 489 563 38,000  Level Atlanta Center
08:35PM 34.6975 -83.6647 16° North 478 550 38,000  Level Atlanta Center
08:36PM 34.8308 -83.6364 10° North 478 550 38,000  Level Atlanta Center
08:37PM 34.9494 -83.5622 27° Northeast 473 544 38,000  Level Atlanta Center
08:38PM 35.0722 -83.4753 30° Northeast 479 551 38,000  Level Atlanta Center
08:39PM 35.1928 -83.3933 29° Northeast 494 568 38,000  Level Atlanta Center
08:40PM 35.3239 -83.3261 23° Northeast 499 574 38,000  Level Atlanta Center
08:41PM 35.4594 -83.2892 13° North 492 566 38,000  Level Atlanta Center
08:42PM 35.5969 -83.2803 North 492 566 38,000  Level Atlanta Center
08:43PM 35.7325 -83.2842 359° North 482 555 38,000  Level Atlanta Center
08:44PM 35.8683 -83.2803 North 482 555 38,000  Level Atlanta Center
08:45PM 35.9786 -83.2767 North 482 555 38,000  Level Atlanta Center
08:46PM 36.1247 -83.2728 North 476 548 38,000  Level Atlanta Center
08:47PM 36.2603 -83.2739 360° North 476 548 38,000  Level Atlanta Center
08:50PM 36.6458 -83.2967 357° North 486 559 38,000  Level Indianapolis Center
08:51PM 36.7817 -83.3131 354° North 484 557 38,000  Level Indianapolis Center
08:52PM 36.9175 -83.3294 354° North 484 557 38,000  Level Indianapolis Center
08:53PM 37.0547 -83.3486 354° North 487 560 38,000  Level Indianapolis Center
08:54PM 37.2131 -83.3681 354° North 484 557 38,000  Level Indianapolis Center
08:55PM 37.3367 -83.4236 340° North 470 541 38,000  Level Indianapolis Center
08:56PM 37.4433 -83.5092 328° Northwest 456 525 38,000  Level Indianapolis Center
08:57PM 37.5517 -83.5947 328° Northwest 459 528 38,000  Level Indianapolis Center
08:58PM 37.6611 -83.6814 328° Northwest 462 532 38,000  Level Indianapolis Center
08:59PM 37.7703 -83.7669 328° Northwest 462 532 38,000  Level Indianapolis Center
09:01PM 38.0061 -83.9533 328° Northwest 459 528 38,000  Level Indianapolis Center
09:02PM 38.1133 -84.0392 328° Northwest 458 527 38,000  Level Indianapolis Center
09:03PM 38.2208 -84.1256 328° Northwest 456 525 38,000  Level Indianapolis Center
09:04PM 38.3292 -84.2131 328° Northwest 457 526 38,000  Level Indianapolis Center
09:05PM 38.4372 -84.3008 328° Northwest 458 527 38,000 -300 Level Indianapolis Center
09:06PM 38.5456 -84.3886 328° Northwest 460 529 37,500 -540 Descending Indianapolis Center
09:07PM 38.6697 -84.4897 328° Northwest 471 542 37,000 -300 Descending Indianapolis Center
09:08PM 38.7675 -84.5703 327° Northwest 473 544 37,000 -360 Level Indianapolis Center
09:09PM 38.8969 -84.6772 327° Northwest 475 547 36,300 -840 Descending Indianapolis Center
09:10PM 38.9989 -84.7794 322° Northwest 475 547 35,300 -1,020 Descending Indianapolis Center
09:11PM 39.0994 -84.8975 318° Northwest 478 550 34,300 -1,020 Descending Indianapolis Center
09:12PM 39.1925 -85.0081 317° Northwest 465 535 33,300 -1,080 Descending Indianapolis Center
09:13PM 39.2864 -85.1214 317° Northwest 460 529 32,200 -1,080 Descending Indianapolis Center
09:14PM 39.3783 -85.2331 317° Northwest 450 518 31,200 -1,020 Descending Indianapolis Center
09:15PM 39.4903 -85.3236 328° Northwest 478 550 30,200 -600 Descending Indianapolis Center
09:16PM 39.6044 -85.4017 332° Northwest 464 534 30,000 -120 Descending Indianapolis Center
09:17PM 39.7189 -85.4817 332° Northwest 462 532 30,000 -660 Level Indianapolis Center
09:18PM 39.8322 -85.5625 331° Northwest 458 527 28,700 -1,680 Descending Indianapolis Center
09:19PM 39.9419 -85.6403 331° Northwest 450 518 26,600 -2,220 Descending Indianapolis Center
09:20PM 40.0686 -85.7297 332° Northwest 442 509 24,200 -1,320 Descending Indianapolis Center
09:21PM 40.1744 -85.8042 332° Northwest 432 497 24,000 -180 Descending Indianapolis Center
09:22PM 40.2158 -85.8319 333° Northwest 421 484 24,000  Level Chicago Center
09:23PM 40.3158 -85.9044 331° Northwest 412 474 24,000 -120 Level Chicago Center
09:24PM 40.4133 -85.9742 331° Northwest 402 463 23,800 -960 Descending Chicago Center
09:25PM 40.5103 -86.0433 332° Northwest 398 458 22,100 -2,040 Descending Chicago Center
09:26PM 40.6219 -86.1247 331° Northwest 387 445 19,600 -2,520 Descending Chicago Center
09:27PM 40.7181 -86.1933 332° Northwest 389 448 17,000 -1,980 Descending Chicago Center
09:28PM 40.8108 -86.2589 332° Northwest 383 441 15,600 -1,620 Descending Chicago Center
09:29PM 40.8992 -86.3242 331° Northwest 370 426 13,800 -1,740 Descending Chicago Center
09:30PM 40.9875 -86.3886 331° Northwest 364 419 12,100 -1,440 Descending Chicago Center
09:31PM 41.0619 -86.4683 321° Northwest 357 411 10,900 -1,020 Descending Chicago Center
09:32PM 41.1042 -86.5722 298° West 325 374 10,000 -480 Descending Chicago Center
09:33PM 41.1586 -86.6592 310° West 309 356 10,000  Level Chicago Center
09:34PM 41.2364 -86.7461 320° Northwest 316 364 10,000 -360 Level Chicago Center
09:35PM 41.3019 -86.8222 319° Northwest 316 364 9,300 -840 Descending Chicago Center
09:36PM 41.3675 -86.8964 320° Northwest 312 359 8,300 -1,020 Descending Chicago Center
09:37PM 41.4303 -86.9706 318° Northwest 306 352 7,300 -1,080 Descending Chicago Center
09:38PM 41.4833 -87.0711 305° West 288 331 6,100 -660 Descending Chicago Center
09:39PM 41.5147 -87.1589 296° West 270 311 6,000 -120 Descending Chicago Center
09:40PM 41.5167 -87.2000 274° West 230 265 6,000  Level Chicago TRACON
09:41PM 41.5167 -87.3000 270° West 209 241 6,000 -480 Level Chicago TRACON
09:42PM 41.5333 -87.3667 288° West 216 249 5,000 -960 Descending Chicago TRACON
09:43PM 41.5344 -87.3942 273° West 213 245 4,600 -660 Descending Chicago Center
09:44PM 41.5811 -87.4686 310° West 217 250 4,000 -300 Descending Chicago Center
09:45PM 41.6242 -87.5261 315° West 220 253 4,000  Level Chicago Center
09:46PM 41.6661 -87.5844 314° West 220 253 4,000 -540 Level Chicago Center
09:47PM 41.7031 -87.6375 313° West 212 244 3,000 -1,020 Descending Chicago Center
09:48PM 41.7347 -87.6825 313° West 191 220 2,000 -1,020 Descending Chicago Center
09:48PM 41.7500 -87.7000 319° Northwest 147 169 1,600 -540 Descending Chicago TRACON
09:50PM 41.7925 -87.7633 312° West 158 182 900 -420 Descending Chicago Center